Time;durP1;ratioP1;P1;durP2;ratioP2;P2;SDS_P1;SDS_P2;PMS_P1;PMS_P2;Temp;Humidity;BMP_temperature;BMP_pressure;BME280_temperature;BME280_humidity;BME280_pressure;Samples;Min_cycle;Max_cycle;Signal;HPM_P1;HPM_P2
2024/03/23 00:01:39;;;;;;;10.98;2.40;;;;;;;4.54;84.00;100818.88;4909459;29;20059;-60
2024/03/23 00:04:07;;;;;;;14.38;2.00;;;;;;;4.55;83.93;100817.78;4925566;29;20398;-59
2024/03/23 00:06:34;;;;;;;5.20;1.33;;;;;;;4.54;84.35;100825.19;4925665;29;20060;-60
2024/03/23 00:09:02;;;;;;;5.35;1.40;;;;;;;4.52;84.29;100810.16;4894332;29;20146;-60
2024/03/23 00:11:30;;;;;;;18.00;2.00;;;;;;;4.48;84.47;100818.16;4891191;29;20044;-60
2024/03/23 00:13:57;;;;;;;12.73;2.67;;;;;;;4.46;84.59;100816.84;4923763;29;20056;-60
2024/03/23 00:16:25;;;;;;;5.65;1.38;;;;;;;4.42;84.76;100810.34;4902073;29;20161;-59
2024/03/23 00:18:53;;;;;;;10.82;2.05;;;;;;;4.40;84.94;100823.53;4924629;29;20047;-59
2024/03/23 00:21:20;;;;;;;4.43;1.63;;;;;;;4.38;84.84;100801.09;4924847;29;20048;-59
2024/03/23 00:23:47;;;;;;;8.23;2.50;;;;;;;4.35;84.99;100798.94;4925174;29;20055;-60
2024/03/23 00:26:16;;;;;;;10.10;2.47;;;;;;;4.36;84.87;100803.31;4894183;29;20056;-59
2024/03/23 00:28:43;;;;;;;7.65;1.65;;;;;;;4.34;84.90;100791.84;4893168;29;20430;-60
2024/03/23 00:31:11;;;;;;;5.15;1.50;;;;;;;4.30;84.95;100806.16;4893981;29;20055;-60
2024/03/23 00:33:38;;;;;;;10.35;2.58;;;;;;;4.28;85.38;100794.69;4893867;29;20052;-60
2024/03/23 00:36:06;;;;;;;13.40;3.03;;;;;;;4.26;85.27;100785.16;4893791;29;20749;-60
2024/03/23 00:38:33;;;;;;;8.98;2.78;;;;;;;4.24;85.40;100787.34;4893703;29;20836;-60
2024/03/23 00:41:01;;;;;;;6.68;1.90;;;;;;;4.23;85.81;100785.75;4903428;29;20052;-60
2024/03/23 00:43:28;;;;;;;9.60;1.75;;;;;;;4.21;85.76;100782.47;4924660;29;20048;-60
2024/03/23 00:45:56;;;;;;;11.32;2.00;;;;;;;4.19;86.09;100791.00;4893745;29;20518;-60
2024/03/23 00:48:23;;;;;;;4.38;1.23;;;;;;;4.18;85.62;100800.34;4924430;29;20048;-60
2024/03/23 00:50:50;;;;;;;11.27;1.83;;;;;;;4.18;86.11;100789.38;4890958;29;20060;-59
2024/03/23 00:53:17;;;;;;;5.78;1.20;;;;;;;4.18;86.04;100794.06;4892922;29;20510;-59
2024/03/23 00:55:44;;;;;;;7.22;1.77;;;;;;;4.17;86.07;100793.25;4893583;29;20063;-59
2024/03/23 00:58:10;;;;;;;7.72;1.95;;;;;;;4.17;86.38;100796.00;4924779;29;20045;-59
2024/03/23 01:00:36;;;;;;;6.95;1.20;;;;;;;4.16;86.15;100797.09;4924855;29;20052;-61
2024/03/23 01:03:03;;;;;;;5.15;1.67;;;;;;;4.15;86.11;100790.00;4893466;29;20087;-60
2024/03/23 01:05:29;;;;;;;4.82;1.58;;;;;;;4.14;86.41;100798.50;4905929;29;20419;-60
2024/03/23 01:07:56;;;;;;;5.07;1.42;;;;;;;4.12;86.23;100793.34;4892570;29;20040;-59
2024/03/23 01:10:22;;;;;;;6.57;1.48;;;;;;;4.12;86.62;100800.75;4892749;29;20521;-61
2024/03/23 01:12:48;;;;;;;8.10;1.95;;;;;;;4.10;86.48;100805.72;4892002;29;20052;-60
2024/03/23 01:15:15;;;;;;;4.50;1.52;;;;;;;4.10;86.81;100801.03;4892639;29;20044;-59
2024/03/23 01:17:41;;;;;;;10.07;2.78;;;;;;;4.10;86.41;100809.25;4892287;29;20048;-59
2024/03/23 01:20:07;;;;;;;10.45;1.95;;;;;;;4.10;86.72;100797.50;4892892;29;20052;-60
2024/03/23 01:22:34;;;;;;;2.65;1.10;;;;;;;4.09;86.88;100791.19;4893273;29;20056;-59
2024/03/23 01:25:00;;;;;;;6.70;1.38;;;;;;;4.10;86.56;100792.81;4892440;29;20055;-59
2024/03/23 01:27:26;;;;;;;4.68;1.40;;;;;;;4.10;86.62;100787.31;4892601;29;20056;-59
2024/03/23 01:29:53;;;;;;;6.22;3.22;;;;;;;4.15;86.74;100792.75;4908684;29;20044;-60
2024/03/23 01:32:19;;;;;;;7.93;2.47;;;;;;;4.20;87.06;100798.13;4926538;29;20052;-60
2024/03/23 01:34:45;;;;;;;7.30;1.65;;;;;;;4.25;87.07;100781.59;4895633;29;20056;-58
2024/03/23 01:37:13;;;;;;;13.57;3.55;;;;;;;4.27;87.01;100779.34;4896260;29;20051;-58
2024/03/23 01:39:39;;;;;;;7.03;1.52;;;;;;;4.25;86.78;100778.84;4896778;29;20040;-60
2024/03/23 01:42:05;;;;;;;8.70;1.70;;;;;;;4.24;87.17;100774.47;4896148;29;20052;-59
2024/03/23 01:44:32;;;;;;;10.43;2.15;;;;;;;4.21;86.84;100783.28;4896155;29;20064;-59
2024/03/23 01:46:58;;;;;;;5.82;1.70;;;;;;;4.19;87.10;100774.56;4895412;29;20044;-59
2024/03/23 01:49:24;;;;;;;6.30;1.70;;;;;;;4.15;87.21;100772.75;4896433;29;20055;-60
2024/03/23 01:51:51;;;;;;;8.02;1.30;;;;;;;4.15;87.57;100767.28;4895625;29;20421;-59
2024/03/23 01:54:17;;;;;;;5.00;1.40;;;;;;;4.12;87.42;100757.72;4900664;29;20048;-59
2024/03/23 01:56:43;;;;;;;7.82;1.60;;;;;;;4.09;87.69;100752.84;4895500;29;20430;-59
2024/03/23 01:59:10;;;;;;;9.95;1.80;;;;;;;4.07;87.44;100760.56;4895640;29;20044;-59
2024/03/23 02:01:36;;;;;;;4.50;2.22;;;;;;;4.06;87.57;100758.94;4894940;29;20071;-58
2024/03/23 02:04:04;;;;;;;6.60;1.77;;;;;;;4.05;87.59;100760.03;4893338;29;20059;-58
2024/03/23 02:06:30;;;;;;;8.77;2.08;;;;;;;4.08;87.97;100759.44;4910734;29;20044;-59
2024/03/23 02:08:57;;;;;;;14.93;2.22;;;;;;;4.11;88.08;100761.56;4896091;29;20376;-59
2024/03/23 02:11:24;;;;;;;6.45;2.22;;;;;;;4.16;88.28;100764.22;4895720;29;20528;-57
2024/03/23 02:13:50;;;;;;;11.13;1.75;;;;;;;4.19;87.97;100762.78;4900198;29;20044;-59
2024/03/23 02:16:19;;;;;;;7.05;1.80;;;;;;;4.18;87.88;100753.75;4896806;29;20864;-60
2024/03/23 02:18:46;;;;;;;8.88;2.03;;;;;;;4.17;88.15;100768.59;4893999;29;20402;-59
2024/03/23 02:21:12;;;;;;;9.80;1.50;;;;;;;4.13;88.13;100764.81;4899421;29;20044;-58
2024/03/23 02:23:38;;;;;;;6.13;2.00;;;;;;;4.11;87.92;100756.09;4895603;29;20103;-59
2024/03/23 02:26:05;;;;;;;10.98;2.17;;;;;;;4.08;88.03;100762.16;4895575;29;20055;-59
2024/03/23 02:28:31;;;;;;;8.52;1.88;;;;;;;4.07;87.89;100757.81;4894876;29;20056;-59
2024/03/23 02:30:58;;;;;;;10.25;2.85;;;;;;;4.05;88.10;100751.81;4910895;29;20043;-58
2024/03/23 02:33:24;;;;;;;8.95;2.03;;;;;;;4.05;88.22;100751.81;4895235;29;20410;-60
2024/03/23 02:35:55;;;;;;;12.75;1.65;;;;;;;4.04;88.52;100755.69;4895778;29;20056;-59
2024/03/23 02:38:21;;;;;;;15.98;2.03;;;;;;;4.05;88.53;100745.53;4895245;29;20379;-57
2024/03/23 02:40:47;;;;;;;9.35;1.67;;;;;;;4.07;88.30;100748.78;4877956;29;20048;-59
2024/03/23 02:43:14;;;;;;;14.40;2.42;;;;;;;4.06;88.34;100737.00;4895418;29;20052;-59
2024/03/23 02:45:40;;;;;;;9.27;1.92;;;;;;;4.09;88.32;100739.16;4895674;29;20071;-58
2024/03/23 02:48:06;;;;;;;9.07;1.95;;;;;;;4.12;88.75;100745.94;4895125;29;20135;-59
2024/03/23 02:50:33;;;;;;;13.40;2.85;;;;;;;4.13;88.43;100734.69;4926248;29;20063;-58
2024/03/23 02:52:59;;;;;;;8.40;2.13;;;;;;;4.16;88.62;100738.72;4894605;29;20584;-59
2024/03/23 02:55:26;;;;;;;6.78;1.50;;;;;;;4.17;88.71;100737.63;4894942;29;20060;-59
2024/03/23 02:57:53;;;;;;;13.23;1.95;;;;;;;4.20;89.11;100720.59;4894979;29;20043;-59
2024/03/23 03:02:52;;;;;;;6.32;1.58;;;;;;;4.20;88.82;100726.06;4970459;23;20178;-61
2024/03/23 03:05:19;;;;;;;9.40;2.03;;;;;;;4.19;88.70;100729.91;4935817;28;20039;-61
2024/03/23 03:07:45;;;;;;;11.20;1.85;;;;;;;4.18;89.02;100723.63;4931336;28;20043;-62
2024/03/23 03:10:11;;;;;;;7.63;2.08;;;;;;;4.18;89.20;100723.63;4950281;28;20051;-62
2024/03/23 03:12:38;;;;;;;18.40;2.90;;;;;;;4.19;89.11;100722.50;4935420;28;22301;-61
2024/03/23 03:15:04;;;;;;;9.52;1.95;;;;;;;4.20;89.31;100715.94;4944314;28;20058;-62
2024/03/23 03:17:31;;;;;;;12.35;2.05;;;;;;;4.21;89.48;100712.06;4966085;28;20054;-61
2024/03/23 03:19:58;;;;;;;10.48;1.95;;;;;;;4.21;89.24;100709.31;4967704;28;20050;-62
2024/03/23 03:22:24;;;;;;;10.52;2.10;;;;;;;4.25;89.25;100717.75;4970020;28;20046;-61
2024/03/23 03:24:51;;;;;;;12.00;1.88;;;;;;;4.26;89.17;100706.47;4964989;28;20141;-62
2024/03/23 03:27:17;;;;;;;10.70;2.20;;;;;;;4.25;89.63;100701.31;4964065;28;20543;-62
2024/03/23 03:29:44;;;;;;;9.20;1.65;;;;;;;4.22;89.52;100682.72;4949579;28;20453;-62
2024/03/23 03:32:10;;;;;;;9.32;2.20;;;;;;;4.20;89.46;100694.00;4959843;28;20137;-61
2024/03/23 03:34:36;;;;;;;6.55;3.25;;;;;;;4.17;89.52;100694.63;4960304;28;20535;-61
2024/03/23 03:37:04;;;;;;;12.43;3.08;;;;;;;4.16;89.55;100692.16;4963378;28;20058;-62
2024/03/23 03:39:31;;;;;;;7.85;1.92;;;;;;;4.15;89.81;100680.41;4972930;28;20058;-61
2024/03/23 03:41:57;;;;;;;13.82;2.47;;;;;;;4.18;89.75;100690.75;4964102;28;20048;-62
2024/03/23 03:44:23;;;;;;;11.40;3.67;;;;;;;4.20;89.91;100684.97;4966496;28;20035;-62
2024/03/23 03:46:49;;;;;;;10.57;3.55;;;;;;;4.21;89.75;100673.69;4955396;28;20434;-62
2024/03/23 03:49:16;;;;;;;12.02;1.88;;;;;;;4.20;89.81;100661.13;4959642;28;20061;-63
2024/03/23 03:51:42;;;;;;;7.95;1.98;;;;;;;4.20;89.80;100665.78;4950926;28;20039;-62
2024/03/23 03:54:08;;;;;;;12.95;2.08;;;;;;;4.18;89.96;100649.63;4969612;28;20039;-62
2024/03/23 03:56:34;;;;;;;9.70;1.73;;;;;;;4.16;89.88;100649.13;4959293;28;20054;-62
2024/03/23 03:59:01;;;;;;;8.27;1.48;;;;;;;4.12;90.12;100653.63;4958885;28;20073;-62
2024/03/23 04:01:27;;;;;;;5.80;1.30;;;;;;;4.10;89.90;100644.88;4956245;28;20053;-62
2024/03/23 04:03:54;;;;;;;6.47;1.45;;;;;;;4.09;89.99;100637.78;4955981;28;20062;-62
2024/03/23 04:06:20;;;;;;;10.93;1.60;;;;;;;4.06;89.94;100630.19;4950118;28;20042;-62
2024/03/23 04:08:47;;;;;;;9.02;1.33;;;;;;;4.07;90.13;100626.34;4949549;28;20051;-62
2024/03/23 04:11:13;;;;;;;8.55;1.80;;;;;;;4.07;90.34;100640.03;4946576;28;20050;-64
2024/03/23 04:13:41;;;;;;;7.43;1.95;;;;;;;4.07;90.07;100633.72;4958100;28;20073;-62
2024/03/23 04:16:09;;;;;;;6.13;2.13;;;;;;;4.07;89.93;100637.28;4965546;28;20046;-63
2024/03/23 04:18:35;;;;;;;7.75;1.67;;;;;;;4.05;89.97;100603.88;4959899;28;20043;-62
2024/03/23 04:21:01;;;;;;;8.05;1.45;;;;;;;4.04;90.14;100623.38;4950541;28;20509;-62
2024/03/23 04:23:28;;;;;;;7.00;1.80;;;;;;;4.02;90.51;100610.00;4965792;28;20058;-62
2024/03/23 04:25:54;;;;;;;6.68;1.83;;;;;;;4.01;90.48;100610.28;4949047;28;20051;-62
2024/03/23 04:28:20;;;;;;;9.40;2.08;;;;;;;3.99;90.31;100621.56;4952569;28;20668;-62
2024/03/23 04:30:47;;;;;;;5.32;1.30;;;;;;;4.00;90.35;100606.72;4943706;28;20046;-62
2024/03/23 04:33:13;;;;;;;7.68;3.58;;;;;;;4.00;90.25;100594.97;4965371;28;20074;-62
2024/03/23 04:35:39;;;;;;;8.02;1.95;;;;;;;4.00;90.37;100595.78;4950209;28;20039;-62
2024/03/23 04:38:06;;;;;;;13.90;1.83;;;;;;;4.00;90.51;100595.78;4961631;28;20054;-62
2024/03/23 04:40:32;;;;;;;4.93;1.20;;;;;;;4.02;90.65;100601.78;4966655;28;20038;-62
2024/03/23 04:42:59;;;;;;;8.07;2.03;;;;;;;4.01;90.56;100586.44;4950082;28;20896;-63
2024/03/23 04:45:25;;;;;;;9.30;1.98;;;;;;;4.02;90.33;100577.13;4949629;28;20888;-63
2024/03/23 04:47:51;;;;;;;15.30;3.40;;;;;;;4.02;90.45;100593.56;4947343;28;20064;-62
2024/03/23 04:50:18;;;;;;;7.88;1.52;;;;;;;4.03;90.31;100589.69;4949993;28;20416;-62
2024/03/23 04:52:44;;;;;;;8.90;1.67;;;;;;;4.04;90.83;100591.31;4948370;28;20042;-63
2024/03/23 04:55:11;;;;;;;11.93;2.28;;;;;;;4.05;90.73;100581.19;4946591;28;20046;-63
2024/03/23 04:57:38;;;;;;;7.57;1.63;;;;;;;4.05;90.39;100572.97;4928223;29;20050;-63
2024/03/23 05:00:16;;;;;;;13.05;3.15;;;;;;;4.04;90.68;100572.16;4958398;28;20528;-63
2024/03/23 05:02:44;;;;;;;7.80;2.25;;;;;;;4.07;90.43;100562.50;4948677;28;20058;-63
2024/03/23 05:05:11;;;;;;;9.73;1.67;;;;;;;4.06;90.63;100561.69;4965746;28;20051;-63
2024/03/23 05:07:37;;;;;;;11.93;1.67;;;;;;;4.06;90.42;100566.34;4956942;28;20043;-63
2024/03/23 05:10:04;;;;;;;8.00;2.50;;;;;;;4.06;90.58;100556.22;4962036;28;20504;-62
2024/03/23 05:12:30;;;;;;;6.85;1.30;;;;;;;4.05;90.76;100560.06;4970683;28;20508;-62
2024/03/23 05:14:56;;;;;;;4.53;1.48;;;;;;;4.04;90.59;100574.88;4967379;28;20447;-63
2024/03/23 05:17:23;;;;;;;11.00;1.70;;;;;;;4.02;90.58;100555.22;4952422;28;20062;-63
2024/03/23 05:19:49;;;;;;;3.72;1.45;;;;;;;4.04;90.70;100552.16;4950034;28;20133;-63
2024/03/23 05:22:15;;;;;;;7.07;1.30;;;;;;;4.06;90.74;100544.44;4969506;28;20604;-63
2024/03/23 05:24:41;;;;;;;7.30;1.40;;;;;;;4.08;90.69;100537.53;4961922;28;20055;-63
2024/03/23 05:27:10;;;;;;;10.68;2.13;;;;;;;4.09;90.87;100538.34;4969973;28;20142;-63
2024/03/23 05:29:38;;;;;;;11.00;2.22;;;;;;;4.07;90.81;100535.13;4963669;28;20137;-62
2024/03/23 05:32:04;;;;;;;6.53;2.85;;;;;;;4.07;90.75;100530.44;4985286;28;20047;-63
2024/03/23 05:34:30;;;;;;;12.93;3.38;;;;;;;4.08;90.71;100532.06;4968999;28;20496;-62
2024/03/23 05:36:57;;;;;;;4.82;1.42;;;;;;;4.09;90.76;100528.22;4967880;28;20047;-63
2024/03/23 05:39:23;;;;;;;10.05;1.95;;;;;;;4.07;90.83;100541.41;4953547;28;20043;-63
2024/03/23 05:41:50;;;;;;;16.85;2.65;;;;;;;4.10;90.96;100540.78;4969564;28;20069;-63
2024/03/23 05:44:16;;;;;;;8.65;1.70;;;;;;;4.13;91.22;100533.91;4972466;28;20425;-62
2024/03/23 05:46:48;;;;;;;12.27;1.83;;;;;;;4.16;90.93;100533.25;4969202;28;20058;-62
2024/03/23 05:49:16;;;;;;;6.28;1.35;;;;;;;4.18;90.81;100529.09;4952781;28;20415;-63
2024/03/23 05:51:42;;;;;;;14.25;3.20;;;;;;;4.22;90.92;100534.78;4966061;28;20035;-63
2024/03/23 05:54:08;;;;;;;6.90;2.25;;;;;;;4.23;90.99;100539.97;4968489;28;20058;-63
2024/03/23 05:56:34;;;;;;;7.22;1.95;;;;;;;4.23;90.86;100534.47;4962216;28;20055;-62
2024/03/23 05:59:03;;;;;;;12.02;2.25;;;;;;;4.25;91.12;100537.72;4961642;28;20051;-63
2024/03/23 06:01:32;;;;;;;9.40;2.97;;;;;;;4.26;90.78;100531.09;4953188;28;20078;-63
2024/03/23 06:03:58;;;;;;;9.35;1.40;;;;;;;4.28;90.81;100539.84;4983425;28;20054;-62
2024/03/23 06:06:25;;;;;;;6.10;2.00;;;;;;;4.29;90.85;100544.19;4967710;28;20050;-63
2024/03/23 06:08:52;;;;;;;8.63;2.03;;;;;;;4.30;90.80;100545.00;4954285;28;20054;-62
2024/03/23 06:11:18;;;;;;;6.93;1.40;;;;;;;4.30;91.47;100534.84;4955461;28;20034;-62
2024/03/23 06:13:44;;;;;;;10.02;2.22;;;;;;;4.32;90.91;100542.75;4970547;28;20393;-61
2024/03/23 06:16:10;;;;;;;13.38;3.72;;;;;;;4.31;90.97;100525.50;4961428;28;20042;-61
2024/03/23 06:18:37;;;;;;;8.25;1.70;;;;;;;4.28;91.16;100528.06;4950176;28;20046;-61
2024/03/23 06:21:03;;;;;;;8.93;2.28;;;;;;;4.26;91.40;100530.31;4965618;28;20414;-61
2024/03/23 06:23:30;;;;;;;9.80;3.25;;;;;;;4.23;91.67;100520.78;4968244;28;20054;-61
2024/03/23 06:25:56;;;;;;;13.18;2.53;;;;;;;4.23;91.64;100519.97;4963546;28;21946;-61
2024/03/23 06:28:23;;;;;;;10.02;2.78;;;;;;;4.22;91.92;100532.84;4956754;28;20054;-61
2024/03/23 06:30:49;;;;;;;7.03;1.55;;;;;;;4.21;91.84;100533.94;4962631;28;20050;-61
2024/03/23 06:33:16;;;;;;;13.88;1.85;;;;;;;4.20;91.87;100535.09;4964342;28;20066;-61
2024/03/23 06:35:42;;;;;;;12.35;1.95;;;;;;;4.22;91.84;100532.03;4967728;28;20419;-62
2024/03/23 06:38:08;;;;;;;10.40;1.77;;;;;;;4.22;91.95;100532.84;4967516;28;20043;-61
2024/03/23 06:40:36;;;;;;;5.95;1.95;;;;;;;4.22;91.86;100527.38;4961459;28;20061;-61
2024/03/23 06:43:02;;;;;;;8.50;1.60;;;;;;;4.23;92.12;100528.19;4967081;28;20055;-61
2024/03/23 06:45:28;;;;;;;7.43;1.50;;;;;;;4.23;92.05;100523.53;4960842;28;20053;-61
2024/03/23 06:47:57;;;;;;;9.02;2.25;;;;;;;4.22;92.51;100527.38;4966906;28;20149;-62
2024/03/23 06:50:25;;;;;;;6.85;1.77;;;;;;;4.23;92.33;100525.44;4980050;28;20050;-62
2024/03/23 06:52:52;;;;;;;6.68;1.83;;;;;;;4.21;92.12;100530.41;4983733;28;20074;-62
2024/03/23 06:55:21;;;;;;;10.38;2.05;;;;;;;4.20;92.57;100528.78;4967099;28;20058;-62
2024/03/23 06:57:47;;;;;;;14.02;2.75;;;;;;;4.15;92.81;100518.78;4951749;28;20055;-62
2024/03/23 07:00:16;;;;;;;12.48;1.85;;;;;;;4.13;92.97;100518.25;4951950;28;20051;-62
2024/03/23 07:02:44;;;;;;;9.55;1.73;;;;;;;4.13;93.11;100522.94;4944734;28;20055;-62
2024/03/23 07:05:10;;;;;;;15.13;1.85;;;;;;;4.10;93.27;100507.91;4965967;28;20501;-62
2024/03/23 07:07:38;;;;;;;6.35;1.83;;;;;;;4.09;92.97;100508.22;4966817;28;20043;-61
2024/03/23 07:10:06;;;;;;;11.38;1.35;;;;;;;4.09;93.23;100509.03;4953096;28;20050;-61
2024/03/23 07:12:32;;;;;;;7.70;1.77;;;;;;;4.11;93.15;100512.28;4967198;28;20520;-61
2024/03/23 07:14:58;;;;;;;10.45;2.05;;;;;;;4.13;93.42;100514.72;4951691;28;20509;-61
2024/03/23 07:17:24;;;;;;;9.88;1.55;;;;;;;4.14;93.33;100508.91;4935245;28;20047;-61
2024/03/23 07:19:51;;;;;;;13.40;2.40;;;;;;;4.15;93.27;100507.81;4945346;28;20057;-61
2024/03/23 07:22:17;;;;;;;5.75;1.70;;;;;;;4.17;93.61;100499.28;4939400;28;20795;-62
2024/03/23 07:24:44;;;;;;;6.97;2.00;;;;;;;4.19;93.42;100494.28;4951934;28;20409;-62
2024/03/23 07:27:10;;;;;;;7.50;1.52;;;;;;;4.21;93.32;100500.25;4966671;28;20517;-61
2024/03/23 07:29:36;;;;;;;13.25;1.77;;;;;;;4.23;93.58;100498.84;4968181;28;20058;-62
2024/03/23 07:32:03;;;;;;;12.77;1.90;;;;;;;4.30;93.59;100501.97;4967761;28;20074;-61
2024/03/23 07:34:29;;;;;;;9.63;1.80;;;;;;;4.39;93.56;100487.53;4980648;28;20097;-61
2024/03/23 07:36:55;;;;;;;11.02;1.70;;;;;;;4.46;93.24;100512.56;4951382;28;20066;-61
2024/03/23 07:39:22;;;;;;;5.13;1.65;;;;;;;4.51;93.44;100496.00;4967563;28;20184;-61
2024/03/23 07:41:48;;;;;;;9.20;2.13;;;;;;;4.52;93.16;100501.19;4967114;28;20046;-61
2024/03/23 07:44:15;;;;;;;7.28;1.38;;;;;;;4.54;93.68;100500.88;4967027;28;20101;-61
2024/03/23 07:46:41;;;;;;;5.35;2.03;;;;;;;4.60;93.91;100510.59;4967487;28;20050;-62
2024/03/23 07:49:07;;;;;;;10.07;1.58;;;;;;;4.65;93.68;100511.28;4966921;28;20398;-62
2024/03/23 07:51:34;;;;;;;13.30;1.80;;;;;;;4.73;93.24;100509.72;4967929;28;20505;-61
2024/03/23 07:54:01;;;;;;;10.50;1.77;;;;;;;4.79;93.29;100509.28;4972005;28;20055;-62
2024/03/23 07:56:27;;;;;;;8.55;1.88;;;;;;;4.82;93.12;100507.84;4968679;28;20047;-62
2024/03/23 07:58:53;;;;;;;8.88;1.98;;;;;;;4.77;93.18;100521.66;4967587;28;21374;-62
2024/03/23 08:01:19;;;;;;;9.07;1.60;;;;;;;4.71;93.30;100511.97;4966544;28;20413;-62
2024/03/23 08:03:46;;;;;;;9.32;1.95;;;;;;;4.65;93.74;100508.53;4962736;28;20055;-62
2024/03/23 08:06:14;;;;;;;10.80;2.15;;;;;;;4.63;93.89;100527.22;4963327;28;20090;-61
2024/03/23 08:08:42;;;;;;;4.53;1.55;;;;;;;4.63;93.76;100518.19;4949990;28;20409;-62
2024/03/23 08:11:09;;;;;;;5.10;1.45;;;;;;;4.74;94.09;100516.81;4977420;28;20050;-61
2024/03/23 08:13:37;;;;;;;11.65;1.83;;;;;;;4.85;93.62;100526.41;4951220;28;20062;-61
2024/03/23 08:16:04;;;;;;;9.63;1.77;;;;;;;4.83;93.62;100531.41;4950775;28;20058;-61
2024/03/23 08:18:31;;;;;;;9.43;2.38;;;;;;;4.76;93.98;100525.56;4948315;28;20055;-61
2024/03/23 08:21:02;;;;;;;10.40;2.88;;;;;;;4.71;94.08;100528.44;4971352;28;20047;-60
2024/03/23 08:23:33;;;;;;;6.50;2.03;;;;;;;4.65;94.09;100529.66;4950559;28;20039;-60
2024/03/23 08:26:08;;;;;;;7.63;2.22;;;;;;;4.64;94.09;100525.28;4950159;28;20047;-61
2024/03/23 08:28:35;;;;;;;7.07;2.08;;;;;;;4.63;94.27;100537.41;4968620;28;20073;-61
2024/03/23 08:31:03;;;;;;;13.13;2.42;;;;;;;4.61;94.26;100531.38;4965949;28;20047;-62
2024/03/23 08:33:30;;;;;;;8.63;1.35;;;;;;;4.60;94.45;100527.88;4950714;28;20054;-62
2024/03/23 08:36:00;;;;;;;3.20;1.55;;;;;;;4.52;94.44;100542.31;4967017;28;20047;-61
2024/03/23 08:38:27;;;;;;;12.50;1.42;;;;;;;4.53;94.83;100521.16;4960116;28;20050;-62
2024/03/23 08:41:05;;;;;;;10.40;2.10;;;;;;;4.60;94.77;100516.91;4966848;28;20054;-62
2024/03/23 08:43:33;;;;;;;3.10;1.25;;;;;;;4.74;94.66;100512.13;4950227;28;20039;-62
2024/03/23 08:46:08;;;;;;;3.33;1.00;;;;;;;4.82;94.58;100524.28;4962291;28;20061;-62
2024/03/23 08:48:36;;;;;;;9.32;1.20;;;;;;;4.93;94.20;100522.91;4966124;28;20062;-61
2024/03/23 08:51:04;;;;;;;9.80;1.70;;;;;;;4.98;94.41;100522.78;4966546;28;20527;-61
2024/03/23 08:53:30;;;;;;;5.72;1.58;;;;;;;5.00;93.96;100509.59;4982373;28;20055;-61
2024/03/23 08:55:58;;;;;;;5.90;1.23;;;;;;;5.04;94.42;100507.00;4952684;28;20535;-61
2024/03/23 08:58:25;;;;;;;4.03;1.70;;;;;;;5.13;94.16;100499.66;4965648;28;20050;-61
2024/03/23 09:00:52;;;;;;;6.93;1.10;;;;;;;5.14;93.96;100493.00;4965932;28;20055;-61
2024/03/23 09:03:18;;;;;;;3.72;1.10;;;;;;;5.13;94.24;100496.91;4968113;28;20782;-61
2024/03/23 09:05:44;;;;;;;3.50;1.30;;;;;;;5.11;94.11;100499.94;4969050;28;20748;-61
2024/03/23 09:08:11;;;;;;;5.90;1.17;;;;;;;5.16;94.65;100507.25;4970389;28;20062;-61
2024/03/23 09:10:41;;;;;;;11.70;1.50;;;;;;;5.25;94.32;100495.19;4952687;28;20065;-61
2024/03/23 09:13:08;;;;;;;8.00;1.60;;;;;;;5.45;94.59;100491.06;4968517;28;20061;-61
2024/03/23 09:15:35;;;;;;;9.80;3.30;;;;;;;5.82;94.96;100503.47;4952356;28;20539;-62
2024/03/23 09:18:02;;;;;;;7.30;1.17;;;;;;;6.19;95.00;100505.69;4968268;28;20050;-59
2024/03/23 09:20:32;;;;;;;11.80;1.08;;;;;;;6.60;94.76;100497.75;4968528;28;20042;-61
2024/03/23 09:22:58;;;;;;;4.75;1.27;;;;;;;7.35;94.31;100504.56;4968290;28;20042;-64
2024/03/23 09:25:26;;;;;;;8.85;1.42;;;;;;;8.03;93.46;100499.84;4984056;28;20085;-64
2024/03/23 09:27:52;;;;;;;3.83;1.48;;;;;;;8.20;92.02;100500.53;4970929;28;20051;-62
2024/03/23 09:30:19;;;;;;;7.30;1.35;;;;;;;8.02;92.03;100498.22;4970041;28;20069;-61
2024/03/23 09:32:46;;;;;;;6.10;2.83;;;;;;;8.34;93.11;100497.56;4977021;28;20049;-65
2024/03/23 09:35:12;;;;;;;4.03;1.20;;;;;;;9.34;92.07;100505.53;4969237;28;20050;-63
2024/03/23 09:37:41;;;;;;;6.95;1.23;;;;;;;10.11;90.22;100505.28;4971222;28;20054;-63
2024/03/23 09:40:11;;;;;;;2.95;0.88;;;;;;;10.54;89.05;100509.41;4952809;28;20046;-64
2024/03/23 09:42:38;;;;;;;5.47;1.55;;;;;;;10.98;88.29;100511.88;4962541;28;20077;-65
2024/03/23 09:45:09;;;;;;;6.75;2.00;;;;;;;11.22;87.36;100507.38;4965344;28;20054;-64
2024/03/23 09:47:35;;;;;;;5.22;0.80;;;;;;;11.20;86.89;100507.72;4949940;28;20046;-64
2024/03/23 09:50:04;;;;;;;4.82;0.90;;;;;;;10.71;85.02;100504.38;4949799;28;20054;-64
2024/03/23 09:52:31;;;;;;;3.35;0.80;;;;;;;9.81;84.75;100495.66;4956314;28;20050;-64
2024/03/23 09:54:57;;;;;;;4.30;1.33;;;;;;;8.91;85.27;100495.75;4971752;28;20051;-64
2024/03/23 09:57:23;;;;;;;5.20;2.90;;;;;;;8.24;86.36;100500.66;4971337;28;20053;-65
2024/03/23 09:59:50;;;;;;;5.32;0.93;;;;;;;7.99;88.44;100505.22;4969764;28;20039;-65
2024/03/23 10:02:20;;;;;;;1.83;0.68;;;;;;;8.31;89.77;100501.75;4987935;28;20058;-64
2024/03/23 10:04:47;;;;;;;6.05;0.80;;;;;;;8.76;88.10;100509.38;4970854;28;20052;-64
2024/03/23 10:07:20;;;;;;;2.42;0.40;;;;;;;9.63;86.53;100508.91;4971300;28;20054;-63
2024/03/23 10:09:51;;;;;;;2.60;0.60;;;;;;;10.67;84.11;100492.38;4960142;28;20105;-63
2024/03/23 10:12:19;;;;;;;1.30;0.68;;;;;;;11.27;82.28;100510.69;4967011;28;20073;-64
2024/03/23 10:14:46;;;;;;;5.72;1.17;;;;;;;11.71;80.44;100505.91;4967508;28;20050;-64
2024/03/23 10:17:19;;;;;;;2.78;0.60;;;;;;;12.13;79.89;100511.66;4971984;28;20046;-64
2024/03/23 10:19:49;;;;;;;1.70;0.35;;;;;;;12.45;78.58;100504.88;4971025;28;20054;-65
2024/03/23 10:22:21;;;;;;;1.38;0.40;;;;;;;12.50;77.19;100506.53;4970347;28;20049;-64
2024/03/23 10:24:48;;;;;;;3.20;1.40;;;;;;;12.37;77.73;100511.44;4953598;28;20412;-64
2024/03/23 10:27:20;;;;;;;2.47;0.68;;;;;;;12.63;77.03;100516.34;4971041;28;20042;-63
2024/03/23 10:29:47;;;;;;;3.42;0.60;;;;;;;12.26;74.69;100518.72;4970597;28;20058;-64
2024/03/23 10:32:16;;;;;;;7.50;0.90;;;;;;;11.63;76.88;100504.09;4985012;28;20054;-62
2024/03/23 10:34:43;;;;;;;3.40;1.10;;;;;;;11.41;76.64;100494.41;4967427;28;20053;-62
2024/03/23 10:37:10;;;;;;;4.32;0.65;;;;;;;11.97;75.91;100503.38;4971786;28;20061;-65
2024/03/23 10:39:38;;;;;;;5.28;1.23;;;;;;;12.09;73.03;100505.25;4969366;28;20054;-64
2024/03/23 10:42:12;;;;;;;6.57;1.40;;;;;;;11.29;73.72;100508.34;4969059;28;20054;-63
2024/03/23 10:44:38;;;;;;;5.53;1.17;;;;;;;10.61;75.08;100499.34;4969332;28;20051;-65
2024/03/23 10:47:05;;;;;;;8.55;1.77;;;;;;;9.99;75.67;100510.84;4967806;28;20686;-65
2024/03/23 10:49:33;;;;;;;2.90;0.73;;;;;;;9.41;76.58;100478.13;4990060;28;20076;-64
2024/03/23 10:52:00;;;;;;;6.85;2.20;;;;;;;9.05;77.26;100504.50;4978959;28;20057;-63
2024/03/23 10:54:30;;;;;;;6.80;1.65;;;;;;;8.75;77.70;100492.00;4972029;28;20069;-65
2024/03/23 10:57:14;;;;;;;4.90;1.20;;;;;;;8.38;77.64;100495.72;4968863;28;20057;-64
2024/03/23 10:59:41;;;;;;;7.28;1.42;;;;;;;8.07;77.73;100495.28;4968611;28;20051;-64
2024/03/23 11:02:19;;;;;;;10.35;2.00;;;;;;;8.22;78.45;100489.97;4969126;28;20061;-66
2024/03/23 11:04:48;;;;;;;4.63;1.35;;;;;;;8.62;77.26;100473.78;4977437;28;20055;-65
2024/03/23 11:07:26;;;;;;;6.65;1.17;;;;;;;9.31;75.23;100492.38;4953112;28;20782;-65
2024/03/23 11:09:56;;;;;;;4.32;1.25;;;;;;;9.25;74.26;100480.75;4968706;28;20054;-65
2024/03/23 11:12:23;;;;;;;7.75;2.40;;;;;;;8.93;74.84;100473.31;4969114;28;20051;-64
2024/03/23 11:14:53;;;;;;;11.50;2.60;;;;;;;8.81;75.37;100501.69;4968256;28;20050;-65
2024/03/23 11:17:20;;;;;;;9.10;1.63;;;;;;;8.59;75.20;100499.28;4967437;28;20054;-64
2024/03/23 11:20:03;;;;;;;6.30;1.30;;;;;;;8.40;75.99;100502.53;4983502;28;20070;-65
2024/03/23 11:22:51;;;;;;;12.65;2.60;;;;;;;8.29;76.04;100493.03;4969940;28;20050;-66
2024/03/23 11:25:25;;;;;;;10.55;3.72;;;;;;;8.21;75.86;100491.09;4968123;28;20074;-65
2024/03/23 11:27:54;;;;;;;7.57;2.22;;;;;;;8.31;76.02;100481.69;4963785;28;20834;-65
2024/03/23 11:30:22;;;;;;;13.45;1.67;;;;;;;8.35;75.94;100466.06;4966238;28;20046;-65
2024/03/23 11:32:54;;;;;;;2.83;1.40;;;;;;;8.25;76.03;100475.53;4967948;28;20760;-65